createdAt,value
2019-04-21T00:02:30.698Z,21.47
2019-04-21T00:05:18.836Z,21.03
2019-04-21T00:07:45.372Z,21.80
2019-04-21T00:10:23.034Z,21.77
2019-04-21T00:12:48.390Z,21.80
2019-04-21T00:15:14.529Z,21.00
2019-04-21T00:17:35.216Z,22.57
2019-04-21T00:20:22.467Z,22.53
2019-04-21T00:22:58.679Z,22.80
2019-04-21T00:25:31.022Z,23.03
2019-04-21T00:28:09.354Z,21.83
2019-04-21T00:30:40.072Z,24.73
2019-04-21T00:32:59.747Z,22.70
2019-04-21T00:35:25.785Z,22.53
2019-04-21T00:38:13.648Z,21.60
2019-04-21T00:40:47.928Z,22.77
2019-04-21T00:43:13.326Z,20.83
2019-04-21T00:45:39.293Z,22.30
2019-04-21T00:48:23.743Z,20.57
2019-04-21T00:51:14.592Z,20.97
2019-04-21T00:53:37.125Z,20.67
2019-04-21T00:56:03.499Z,21.20
2019-04-21T00:58:37.262Z,20.57
2019-04-21T01:01:04.382Z,20.43
2019-04-21T01:03:32.740Z,20.50
2019-04-21T01:06:03.184Z,19.20
2019-04-21T01:08:38.099Z,19.20
2019-04-21T01:11:09.392Z,20.17
2019-04-21T01:13:42.237Z,22.17
2019-04-21T01:16:13.825Z,20.10
2019-04-21T01:18:41.273Z,21.10
2019-04-21T01:20:50.923Z,19.70
2019-04-21T01:23:21.394Z,20.87
2019-04-21T01:26:09.452Z,21.37
2019-04-21T01:28:41.291Z,21.30
2019-04-21T01:31:10.986Z,21.30
2019-04-21T01:33:49.023Z,22.13
2019-04-21T01:36:14.079Z,21.83
2019-04-21T01:38:58.301Z,21.30
2019-04-21T01:41:21.108Z,21.67
2019-04-21T01:43:49.071Z,22.33
2019-04-21T01:46:21.895Z,23.57
2019-04-21T01:48:50.475Z,22.43
2019-04-21T01:51:29.578Z,22.60
2019-04-21T01:54:11.197Z,22.23
2019-04-21T01:56:38.957Z,21.97
2019-04-21T01:59:03.462Z,22.93
2019-04-21T02:01:46.031Z,21.37
2019-04-21T02:04:26.966Z,21.70
2019-04-21T02:06:54.935Z,22.07
2019-04-21T02:09:15.259Z,22.17
2019-04-21T02:11:55.104Z,20.80
2019-04-21T02:14:41.638Z,21.63
2019-04-21T02:17:14.854Z,20.60
2019-04-21T02:19:36.079Z,20.87
2019-04-21T02:22:10.785Z,20.13
2019-04-21T02:24:49.366Z,19.97
2019-04-21T02:27:19.175Z,20.33
2019-04-21T02:29:56.668Z,18.93
2019-04-21T02:32:38.974Z,18.40
2019-04-21T02:35:13.650Z,19.10
2019-04-21T02:42:41.845Z,19.73
2019-04-21T02:45:09.381Z,19.83
2019-04-21T02:47:45.963Z,20.37
2019-04-21T02:50:10.068Z,21.47
2019-04-21T02:55:11.578Z,20.50
2019-04-21T02:57:49.411Z,20.17
2019-04-21T03:00:25.103Z,19.20
2019-04-21T03:03:07.021Z,21.40
2019-04-21T03:05:45.403Z,21.20
2019-04-21T03:08:15.446Z,20.97
2019-04-21T03:13:21.794Z,18.60
2019-04-21T03:18:29.776Z,16.53
2019-04-21T03:21:01.235Z,18.23
2019-04-21T03:23:38.203Z,17.93
2019-04-21T03:26:05.198Z,18.27
2019-04-21T03:28:32.177Z,18.67
2019-04-21T03:31:32.059Z,19.97
2019-04-21T03:38:43.130Z,19.33
2019-04-21T03:41:04.286Z,20.07
2019-04-21T03:43:40.055Z,19.53
2019-04-21T03:46:26.278Z,19.97
2019-04-21T03:48:58.335Z,20.70
2019-04-21T03:51:16.030Z,19.87
2019-04-21T03:53:40.365Z,18.70
2019-04-21T03:56:14.560Z,18.73
2019-04-21T04:01:22.112Z,18.07
2019-04-21T04:04:22.649Z,18.43
2019-04-21T04:07:06.104Z,17.80
2019-04-21T04:09:36.762Z,19.00
2019-04-21T04:12:08.668Z,18.83
2019-04-21T04:14:42.371Z,19.97
2019-04-21T04:24:39.599Z,18.57
2019-04-21T04:27:20.747Z,20.03
2019-04-21T04:29:39.656Z,18.77
2019-04-21T04:32:14.628Z,18.97
2019-04-21T04:37:30.240Z,18.70
2019-04-21T04:39:57.063Z,17.53
2019-04-21T04:42:39.295Z,18.07
2019-04-21T04:52:41.926Z,20.13
2019-04-21T04:55:12.107Z,20.83
2019-04-21T04:57:46.614Z,19.83
2019-04-21T05:02:40.493Z,20.53
2019-04-21T05:05:14.117Z,21.13
2019-04-21T05:10:17.284Z,20.40
2019-04-21T05:12:48.884Z,21.23
2019-04-21T05:15:13.153Z,19.10
2019-04-21T05:17:50.663Z,19.10
2019-04-21T05:20:23.708Z,17.57
2019-04-21T05:22:42.741Z,17.63
2019-04-21T05:25:08.577Z,17.77
2019-04-21T05:27:39.676Z,16.67
2019-04-21T05:30:24.796Z,19.47
2019-04-21T05:33:00.274Z,19.13
2019-04-21T05:35:51.883Z,18.00
2019-04-21T05:38:21.863Z,19.43
2019-04-21T05:40:49.463Z,18.53
2019-04-21T05:43:28.336Z,18.90
2019-04-21T05:46:04.820Z,18.63
2019-04-21T05:48:37.739Z,17.43
2019-04-21T05:51:02.062Z,18.37
2019-04-21T05:53:40.905Z,18.53
2019-04-21T05:56:12.779Z,19.53
2019-04-21T05:58:37.815Z,18.23
2019-04-21T06:01:24.125Z,18.10
2019-04-21T06:06:20.448Z,19.10
2019-04-21T06:08:43.176Z,19.47
2019-04-21T06:11:23.844Z,19.17
2019-04-21T06:13:55.444Z,19.60
2019-04-21T06:16:26.419Z,18.67
2019-04-21T06:18:53.256Z,19.47
2019-04-21T06:21:25.102Z,19.20
2019-04-21T06:23:51.474Z,20.07
2019-04-21T06:26:52.334Z,20.83
2019-04-21T06:31:57.880Z,20.63
2019-04-21T06:33:58.530Z,19.20
2019-04-21T06:36:47.457Z,18.57
2019-04-21T06:39:11.320Z,19.13
2019-04-21T06:41:33.933Z,18.50
2019-04-21T06:49:18.777Z,17.90
2019-04-21T06:51:37.130Z,16.47
2019-04-21T06:54:27.812Z,14.50
2019-04-21T06:59:09.460Z,15.70
2019-04-21T07:04:30.202Z,15.57
2019-04-21T07:06:50.110Z,15.43
2019-04-21T07:09:25.427Z,16.17
2019-04-21T07:11:49.095Z,15.27
2019-04-21T07:14:29.381Z,15.85
2019-04-21T07:16:59.608Z,15.40
2019-04-21T07:19:30.594Z,16.48
2019-04-21T07:21:58.920Z,15.72
2019-04-21T07:27:06.824Z,16.37
2019-04-21T07:29:34.768Z,15.85
2019-04-21T07:32:05.087Z,17.00
2019-04-21T07:34:36.391Z,16.52
2019-04-21T07:36:57.966Z,16.57
2019-04-21T07:39:32.618Z,17.67
2019-04-21T07:41:59.533Z,17.10
2019-04-21T07:44:28.553Z,17.53
2019-04-21T07:47:03.548Z,17.90
2019-04-21T07:49:57.516Z,16.60
2019-04-21T07:52:53.400Z,17.57
2019-04-21T07:57:36.738Z,17.87
2019-04-21T08:02:40.654Z,17.13
2019-04-21T08:05:13.075Z,17.32
2019-04-21T08:07:54.766Z,17.97
2019-04-21T08:10:13.972Z,18.07
2019-04-21T08:12:43.212Z,17.92
2019-04-21T08:15:20.701Z,17.47
2019-04-21T08:17:49.132Z,18.00
2019-04-21T08:20:23.124Z,18.02
2019-04-21T08:22:51.591Z,16.95
2019-04-21T08:25:19.294Z,17.30
2019-04-21T08:27:54.492Z,16.75
2019-04-21T08:30:30.341Z,17.52
2019-04-21T08:36:04.749Z,18.10
2019-04-21T08:38:05.243Z,18.37
2019-04-21T08:40:36.725Z,18.47
2019-04-21T08:42:59.855Z,19.75
2019-04-21T08:48:10.254Z,18.67
2019-04-21T08:50:44.665Z,18.73
2019-04-21T08:53:15.592Z,19.40
2019-04-21T08:56:08.867Z,19.97
2019-04-21T08:58:35.663Z,19.60
2019-04-21T09:01:14.137Z,19.43
2019-04-21T09:03:56.092Z,19.90
2019-04-21T09:06:40.230Z,20.07
2019-04-21T09:09:01.565Z,19.63
2019-04-21T09:11:25.216Z,20.20
2019-04-21T09:13:54.730Z,19.83
2019-04-21T09:16:27.901Z,20.83
2019-04-21T09:18:53.643Z,20.00
2019-04-21T09:21:31.377Z,20.30
2019-04-21T09:24:09.358Z,19.77
2019-04-21T09:26:29.309Z,20.37
2019-04-21T09:29:00.656Z,19.80
2019-04-21T09:31:24.102Z,21.73
2019-04-21T09:33:53.748Z,20.40
2019-04-21T09:36:25.082Z,21.65
2019-04-21T09:39:00.203Z,22.50
2019-04-21T09:41:25.960Z,20.80
2019-04-21T09:43:57.456Z,21.20
2019-04-21T09:46:27.622Z,23.10
2019-04-21T09:49:01.985Z,24.65
2019-04-21T09:51:28.414Z,25.90
2019-04-21T09:54:05.776Z,22.17
2019-04-21T09:56:39.545Z,23.77
2019-04-21T09:59:10.126Z,25.37
2019-04-21T10:01:45.064Z,25.20
2019-04-21T10:04:05.477Z,22.00
2019-04-21T10:06:34.991Z,22.50
2019-04-21T10:09:10.250Z,22.13
2019-04-21T10:11:38.161Z,21.68
2019-04-21T10:14:07.700Z,20.68
2019-04-21T10:16:47.720Z,22.37
2019-04-21T10:19:17.589Z,22.30
2019-04-21T10:21:47.795Z,21.42
2019-04-21T10:24:18.034Z,23.15
2019-04-21T10:26:47.670Z,22.42
2019-04-21T10:29:24.498Z,21.85
2019-04-21T10:31:48.444Z,20.92
2019-04-21T10:34:19.037Z,21.45
2019-04-21T10:36:49.093Z,22.55
2019-04-21T10:39:19.891Z,22.37
2019-04-21T10:41:49.561Z,23.02
2019-04-21T10:44:19.249Z,21.62
2019-04-21T10:46:51.819Z,21.35
2019-04-21T10:49:20.107Z,21.75
2019-04-21T10:51:50.754Z,22.50
2019-04-21T10:54:20.334Z,21.33
2019-04-21T10:56:50.830Z,21.97
2019-04-21T10:59:20.851Z,21.95
2019-04-21T11:01:50.450Z,21.65
2019-04-21T11:04:29.026Z,22.30
2019-04-21T11:06:59.437Z,21.05
2019-04-21T11:09:26.246Z,21.48
2019-04-21T11:11:57.758Z,20.82
2019-04-21T11:14:27.611Z,20.80
2019-04-21T11:16:58.540Z,21.23
2019-04-21T11:19:28.582Z,18.92
2019-04-21T11:21:58.783Z,21.90
2019-04-21T11:24:29.184Z,21.87
2019-04-21T11:27:00.352Z,20.30
2019-04-21T11:29:30.993Z,21.42
2019-04-21T11:32:01.050Z,21.45
2019-04-21T11:34:31.450Z,22.22
2019-04-21T11:37:02.062Z,20.77
2019-04-21T11:39:42.014Z,19.75
2019-04-21T11:42:05.946Z,20.72
2019-04-21T11:44:55.408Z,19.73
2019-04-21T11:47:27.782Z,20.85
2019-04-21T11:49:58.988Z,20.37
2019-04-21T11:52:29.175Z,20.05
2019-04-21T11:54:59.057Z,20.80
2019-04-21T11:57:34.484Z,21.35
2019-04-21T11:59:59.785Z,19.75
2019-04-21T12:02:29.911Z,21.55
2019-04-21T12:04:59.471Z,20.72
2019-04-21T12:07:29.371Z,21.75
2019-04-21T12:09:59.698Z,20.97
2019-04-21T12:12:29.619Z,20.17
2019-04-21T12:14:59.904Z,22.32
2019-04-21T12:17:29.977Z,22.95
2019-04-21T12:20:01.047Z,19.42
2019-04-21T12:22:33.799Z,20.15
2019-04-21T12:25:03.046Z,19.87
2019-04-21T12:27:33.877Z,17.77
2019-04-21T12:30:05.997Z,19.15
2019-04-21T12:32:49.608Z,19.23
2019-04-21T12:35:19.735Z,19.17
2019-04-21T12:37:51.166Z,18.10
2019-04-21T12:40:21.213Z,17.50
2019-04-21T12:42:50.785Z,17.45
2019-04-21T12:45:22.043Z,15.23
2019-04-21T12:47:52.431Z,18.07
2019-04-21T12:50:23.634Z,17.37
2019-04-21T12:52:53.718Z,16.85
2019-04-21T12:55:30.665Z,17.62
2019-04-21T12:57:55.239Z,18.87
2019-04-21T13:00:25.026Z,16.05
2019-04-21T13:02:54.551Z,14.83
2019-04-21T13:05:25.315Z,17.07
2019-04-21T13:07:55.291Z,16.70
2019-04-21T13:10:26.315Z,17.25
2019-04-21T13:12:56.313Z,15.15
2019-04-21T13:15:27.335Z,14.80
2019-04-21T13:17:58.384Z,15.25
2019-04-21T13:20:29.433Z,14.60
2019-04-21T13:22:59.766Z,14.65
2019-04-21T13:25:29.774Z,12.80
2019-04-21T13:28:00.750Z,13.38
2019-04-21T13:30:30.717Z,10.98
2019-04-21T13:33:00.842Z,11.35
2019-04-21T13:35:31.001Z,12.23
2019-04-21T13:38:00.664Z,12.20
2019-04-21T13:40:53.078Z,13.60
2019-04-21T13:43:08.285Z,12.58
2019-04-21T13:45:39.398Z,11.88
2019-04-21T13:48:10.528Z,11.45
2019-04-21T13:50:41.402Z,11.88
2019-04-21T13:53:12.372Z,11.88
2019-04-21T13:55:42.612Z,12.37
2019-04-21T13:58:12.524Z,10.82
2019-04-21T14:00:42.166Z,12.28
2019-04-21T14:03:12.494Z,12.13
2019-04-21T14:05:42.496Z,12.70
2019-04-21T14:08:13.463Z,11.65
2019-04-21T14:10:43.963Z,43.23
2019-04-21T14:13:14.329Z,14.80
2019-04-21T14:15:46.718Z,19.37
2019-04-21T14:18:15.323Z,15.15
2019-04-21T14:21:05.060Z,11.57
2019-04-21T14:23:40.576Z,10.88
2019-04-21T14:26:06.508Z,9.83
2019-04-21T14:28:36.732Z,8.18
2019-04-21T14:31:06.639Z,9.48
2019-04-21T14:33:36.266Z,13.32
2019-04-21T14:36:06.256Z,11.70
2019-04-21T14:38:36.621Z,11.30
2019-04-21T14:41:06.412Z,11.50
2019-04-21T14:43:36.264Z,10.80
2019-04-21T14:46:11.044Z,10.58
2019-04-21T14:48:59.247Z,10.65
2019-04-21T14:51:31.634Z,9.98
2019-04-21T14:54:03.719Z,10.88
2019-04-21T14:56:33.556Z,13.00
2019-04-21T14:59:05.401Z,12.85
2019-04-21T15:01:35.865Z,11.43
2019-04-21T15:04:05.930Z,11.18
2019-04-21T15:06:35.517Z,10.30
2019-04-21T15:09:09.263Z,11.18
2019-04-21T15:11:40.111Z,10.30
2019-04-21T15:14:09.756Z,10.23
2019-04-21T15:16:40.796Z,11.28
2019-04-21T15:19:10.851Z,11.80
2019-04-21T15:21:40.592Z,12.05
2019-04-21T15:24:10.185Z,11.53
2019-04-21T15:26:40.124Z,10.78
2019-04-21T15:29:10.814Z,12.00
2019-04-21T15:31:43.126Z,10.88
2019-04-21T15:34:13.017Z,10.48
2019-04-21T15:36:44.111Z,11.25
2019-04-21T15:39:13.979Z,10.60
2019-04-21T15:41:44.904Z,11.28
2019-04-21T15:44:14.706Z,11.20
2019-04-21T15:46:46.115Z,9.55
2019-04-21T15:49:15.728Z,10.00
2019-04-21T15:51:46.358Z,10.32
2019-04-21T15:54:20.514Z,11.03
2019-04-21T15:56:58.683Z,10.85
2019-04-21T15:59:30.590Z,11.40
2019-04-21T16:02:01.931Z,11.20
2019-04-21T16:04:32.674Z,11.97
2019-04-21T16:07:03.656Z,10.88
2019-04-21T16:09:35.858Z,11.25
2019-04-21T16:12:09.676Z,10.72
2019-04-21T16:14:40.691Z,9.43
2019-04-21T16:17:11.637Z,10.55
2019-04-21T16:19:41.694Z,10.50
2019-04-21T16:22:12.828Z,10.98
2019-04-21T16:24:43.961Z,9.70
2019-04-21T16:27:15.146Z,10.13
2019-04-21T16:29:45.806Z,10.28
2019-04-21T16:32:18.463Z,8.95
2019-04-21T16:34:53.582Z,9.28
2019-04-21T16:37:19.464Z,8.70
2019-04-21T16:39:49.536Z,9.65
2019-04-21T16:42:20.452Z,9.80
2019-04-21T16:44:50.500Z,9.20
2019-04-21T16:47:21.418Z,9.03
2019-04-21T16:49:51.930Z,9.23
2019-04-21T16:52:25.971Z,10.00
2019-04-21T16:55:00.254Z,9.13
2019-04-21T16:57:31.597Z,9.43
2019-04-21T17:00:02.743Z,7.97
2019-04-21T17:02:36.724Z,9.23
2019-04-21T17:05:07.551Z,8.80
2019-04-21T17:07:37.073Z,9.40
2019-04-21T17:10:06.649Z,9.55
2019-04-21T17:12:37.417Z,9.13
2019-04-21T17:15:23.946Z,9.70
2019-04-21T17:18:02.997Z,9.70
2019-04-21T17:20:27.846Z,9.60
2019-04-21T17:22:43.858Z,9.08
2019-04-21T17:25:14.200Z,8.33
2019-04-21T17:27:44.867Z,7.83
2019-04-21T17:30:16.675Z,8.63
2019-04-21T17:32:49.532Z,8.70
2019-04-21T17:35:19.411Z,8.65
2019-04-21T17:37:50.020Z,8.50
2019-04-21T17:40:26.362Z,8.63
2019-04-21T17:43:02.145Z,8.88
2019-04-21T17:45:28.891Z,8.88
2019-04-21T17:48:03.321Z,9.28
2019-04-21T17:50:31.624Z,8.18
2019-04-21T17:53:27.594Z,9.05
2019-04-21T17:56:06.539Z,7.80
2019-04-21T17:58:33.578Z,8.75
2019-04-21T18:01:22.876Z,9.00
2019-04-21T18:03:53.636Z,8.30
2019-04-21T18:06:10.291Z,8.57
2019-04-21T18:08:51.928Z,8.40
2019-04-21T18:11:10.189Z,7.95
2019-04-21T18:13:32.813Z,8.37
2019-04-21T18:16:13.363Z,8.30
2019-04-21T18:18:34.887Z,8.27
2019-04-21T18:21:23.030Z,9.43
2019-04-21T18:24:04.962Z,8.73
2019-04-21T18:26:37.073Z,8.90
2019-04-21T18:28:59.268Z,8.57
2019-04-21T18:31:36.003Z,8.67
2019-04-21T18:34:04.965Z,9.00
2019-04-21T18:36:44.146Z,8.77
2019-04-21T18:39:33.855Z,9.00
2019-04-21T18:42:09.391Z,10.30
2019-04-21T18:44:55.032Z,8.77
2019-04-21T18:47:20.016Z,8.83
2019-04-21T18:49:40.084Z,10.13
2019-04-21T18:52:19.381Z,12.70
2019-04-21T18:55:00.446Z,15.10
2019-04-21T18:57:24.978Z,17.47
2019-04-21T18:59:47.719Z,18.40
2019-04-21T19:02:20.550Z,18.93
2019-04-21T19:04:48.414Z,18.57
2019-04-21T19:07:32.714Z,20.23
2019-04-21T19:13:07.999Z,20.73
2019-04-21T19:15:07.157Z,22.27
2019-04-21T19:22:42.074Z,22.53
2019-04-21T19:25:16.707Z,22.83
2019-04-21T19:27:42.281Z,23.37
2019-04-21T19:30:38.393Z,21.63
2019-04-21T19:32:49.711Z,21.43
2019-04-21T19:35:04.164Z,22.20
2019-04-21T19:37:41.058Z,20.17
2019-04-21T19:40:25.214Z,23.90
2019-04-21T19:42:50.225Z,21.50
2019-04-21T19:45:22.461Z,21.77
2019-04-21T19:48:01.000Z,21.17
2019-04-21T19:50:35.173Z,21.70
2019-04-21T19:52:55.067Z,21.93
2019-04-21T19:55:16.148Z,20.63
2019-04-21T19:57:46.823Z,19.60
2019-04-21T20:00:17.526Z,19.80
2019-04-21T20:02:48.308Z,19.33
2019-04-21T20:05:27.171Z,20.67
2019-04-21T20:08:06.451Z,20.83
2019-04-21T20:10:40.721Z,21.03
2019-04-21T20:13:20.376Z,22.07
2019-04-21T20:15:48.589Z,19.77
2019-04-21T20:18:07.124Z,18.60
2019-04-21T20:20:25.168Z,22.97
2019-04-21T20:22:56.040Z,20.57
2019-04-21T20:25:27.213Z,21.93
2019-04-21T20:28:03.695Z,19.17
2019-04-21T20:30:52.828Z,16.63
2019-04-21T20:33:42.897Z,16.93
2019-04-21T20:38:15.628Z,18.67
2019-04-21T20:40:44.141Z,20.03
2019-04-21T20:43:28.472Z,20.97
2019-04-21T20:46:00.462Z,21.43
2019-04-21T20:48:18.065Z,21.00
2019-04-21T20:51:03.509Z,20.37
2019-04-21T20:53:27.605Z,21.10
2019-04-21T20:55:52.865Z,21.33
2019-04-21T20:58:28.319Z,20.27
2019-04-21T21:01:22.169Z,19.13
2019-04-21T21:03:35.083Z,22.00
2019-04-21T21:05:58.615Z,22.93
2019-04-21T21:08:35.900Z,21.93
2019-04-21T21:11:00.889Z,21.37
2019-04-21T21:13:52.144Z,20.23
2019-04-21T21:16:15.135Z,21.73
2019-04-21T21:18:59.572Z,21.90
2019-04-21T21:21:11.084Z,21.37
2019-04-21T21:23:44.020Z,20.57
2019-04-21T21:26:18.751Z,22.40
2019-04-21T21:28:40.330Z,21.67
2019-04-21T21:31:16.424Z,21.37
2019-04-21T21:33:58.532Z,21.10
2019-04-21T21:36:19.259Z,21.33
2019-04-21T21:38:56.038Z,22.43
2019-04-21T21:41:17.595Z,22.17
2019-04-21T21:43:39.160Z,23.23
2019-04-21T21:46:27.054Z,22.67
2019-04-21T21:48:51.682Z,23.37
2019-04-21T21:51:20.518Z,22.77
2019-04-21T21:53:42.575Z,24.87
2019-04-21T21:56:12.500Z,25.67
2019-04-21T21:58:44.251Z,26.33
2019-04-21T22:01:15.344Z,24.60
2019-04-21T22:03:47.243Z,23.17
2019-04-21T22:06:21.426Z,23.70
2019-04-21T22:08:48.282Z,23.70
2019-04-21T22:11:18.096Z,25.53
2019-04-21T22:13:55.679Z,25.83
2019-04-21T22:16:21.241Z,26.17
2019-04-21T22:19:11.835Z,25.77
2019-04-21T22:21:44.312Z,27.73
2019-04-21T22:24:00.609Z,28.33
2019-04-21T22:26:25.093Z,29.50
2019-04-21T22:28:55.844Z,29.47
2019-04-21T22:31:31.566Z,28.90
2019-04-21T22:34:02.221Z,26.63
2019-04-21T22:36:42.693Z,26.80
2019-04-21T22:39:14.862Z,29.53
2019-04-21T22:41:37.267Z,28.03
2019-04-21T22:44:02.782Z,31.17
2019-04-21T22:46:32.703Z,30.33
2019-04-21T22:49:07.375Z,30.57
2019-04-21T22:51:40.709Z,31.73
2019-04-21T22:54:06.136Z,31.90
2019-04-21T22:56:40.827Z,32.20
2019-04-21T22:59:10.970Z,31.47
2019-04-21T23:01:42.497Z,32.53
2019-04-21T23:04:10.702Z,32.83
2019-04-21T23:06:42.601Z,32.30
2019-04-21T23:09:12.865Z,33.07
2019-04-21T23:11:47.493Z,32.67
2019-04-21T23:14:15.748Z,32.00
2019-04-21T23:16:47.937Z,31.50
2019-04-21T23:19:32.125Z,32.40
2019-04-21T23:22:03.824Z,32.10
2019-04-21T23:24:43.773Z,35.43
2019-04-21T23:26:59.829Z,34.00
2019-04-21T23:29:47.854Z,34.23
2019-04-21T23:32:08.485Z,36.07
2019-04-21T23:34:26.585Z,36.83
2019-04-21T23:37:03.258Z,35.77
2019-04-21T23:39:30.280Z,33.83
2019-04-21T23:41:57.773Z,33.27
2019-04-21T23:44:28.233Z,33.70
2019-04-21T23:47:03.472Z,33.87
2019-04-21T23:49:39.159Z,32.43
2019-04-21T23:52:04.429Z,32.80
2019-04-21T23:54:31.474Z,34.10
2019-04-21T23:57:02.862Z,32.57
2019-04-21T23:59:40.166Z,33.97
